Time;durP1;ratioP1;P1;durP2;ratioP2;P2;SDS_P1;SDS_P2;PMS_P1;PMS_P2;Temp;Humidity;BMP_temperature;BMP_pressure;BME280_temperature;BME280_humidity;BME280_pressure;Samples;Min_cycle;Max_cycle;Signal;HPM_P1;HPM_P2
2022/06/17 00:02:05;;;;;;;;;;;;;;;26.41;49.94;98336.75;5029505;28;19991;-84
2022/06/17 00:04:31;;;;;;;;;;;;;;;26.39;50.18;98341.00;5014520;28;19976;-85
2022/06/17 00:07:00;;;;;;;;;;;;;;;26.33;50.25;98348.72;5031371;28;20014;-85
2022/06/17 00:09:27;;;;;;;;;;;;;;;26.33;50.48;98358.88;5029173;28;20019;-86
2022/06/17 00:11:54;;;;;;;;;;;;;;;26.27;50.52;98361.09;5010400;28;20142;-86
2022/06/17 00:14:21;;;;;;;;;;;;;;;26.25;50.33;98375.13;5011197;28;19936;-85
2022/06/17 00:16:48;;;;;;;;;;;;;;;26.28;50.57;98371.66;5029732;28;20375;-85
2022/06/17 00:19:17;;;;;;;;;;;;;;;26.28;50.44;98368.94;5029967;28;20023;-84
2022/06/17 00:21:44;;;;;;;;;;;;;;;26.24;50.66;98372.75;5024390;28;19964;-85
2022/06/17 00:24:15;;;;;;;;;;;;;;;26.27;50.68;98380.25;5026908;28;19935;-86
2022/06/17 00:26:42;;;;;;;;;;;;;;;26.25;50.49;98368.84;5032624;28;20016;-89
2022/06/17 00:29:10;;;;;;;;;;;;;;;26.29;50.32;98378.75;5028241;28;19925;-88
2022/06/17 00:31:36;;;;;;;;;;;;;;;26.28;50.18;98379.06;5012437;28;19955;-87
2022/06/17 00:34:03;;;;;;;;;;;;;;;26.30;50.16;98385.03;5012072;28;19969;-86
2022/06/17 00:36:29;;;;;;;;;;;;;;;26.30;50.19;98385.03;5023254;28;19940;-87
2022/06/17 00:38:55;;;;;;;;;;;;;;;26.15;50.30;98392.06;5027613;28;20029;-88
2022/06/17 00:41:26;;;;;;;;;;;;;;;26.18;50.36;98391.34;5030313;28;19925;-86
2022/06/17 00:43:52;;;;;;;;;;;;;;;26.17;50.42;98399.94;5026992;28;20481;-86
2022/06/17 00:46:29;;;;;;;;;;;;;;;26.18;50.40;98396.06;5017928;28;19925;-86
2022/06/17 00:49:00;;;;;;;;;;;;;;;26.11;50.41;98396.66;5032812;28;19932;-84
2022/06/17 00:51:29;;;;;;;;;;;;;;;26.13;50.31;98391.59;5040571;28;19971;-86
2022/06/17 00:53:58;;;;;;;;;;;;;;;26.04;50.33;98395.66;5035501;28;19944;-84
2022/06/17 00:56:28;;;;;;;;;;;;;;;26.01;50.42;98399.09;5027398;28;19929;-86
2022/06/17 00:58:57;;;;;;;;;;;;;;;25.99;50.41;98401.41;5028599;28;19968;-83
2022/06/17 01:01:24;;;;;;;;;;;;;;;26.06;50.43;98401.56;5017695;28;20014;-85
2022/06/17 01:03:51;;;;;;;;;;;;;;;26.00;50.32;98411.97;5036758;28;19939;-86
2022/06/17 01:06:20;;;;;;;;;;;;;;;25.93;50.43;98408.28;5017805;28;19928;-87
2022/06/17 01:11:35;;;;;;;;;;;;;;;25.83;50.42;98409.59;5033040;28;19928;-86
2022/06/17 01:14:02;;;;;;;;;;;;;;;25.65;50.68;98408.31;5032286;28;19931;-87
2022/06/17 01:16:30;;;;;;;;;;;;;;;25.29;51.54;98422.91;5034699;28;19990;-89
2022/06/17 01:18:58;;;;;;;;;;;;;;;25.40;51.31;98429.47;5013287;28;20375;-87
2022/06/17 01:21:28;;;;;;;;;;;;;;;25.14;51.39;98421.69;5030393;28;19982;-86
2022/06/17 01:23:56;;;;;;;;;;;;;;;24.44;52.68;98428.47;5025884;28;19936;-88
2022/06/17 01:26:22;;;;;;;;;;;;;;;24.09;53.92;98429.97;5042577;28;20020;-87
2022/06/17 01:28:49;;;;;;;;;;;;;;;23.74;55.21;98426.03;5018912;28;19933;-86
2022/06/17 01:31:15;;;;;;;;;;;;;;;23.96;55.25;98422.91;5022906;28;20340;-87
2022/06/17 01:33:43;;;;;;;;;;;;;;;24.01;55.11;98419.97;5030761;28;20092;-81
2022/06/17 01:36:12;;;;;;;;;;;;;;;24.43;54.48;98417.88;5037627;28;19935;-82
2022/06/17 01:38:40;;;;;;;;;;;;;;;24.49;53.76;98420.03;5016221;28;20002;-82
2022/06/17 01:41:08;;;;;;;;;;;;;;;24.84;52.90;98420.41;5031290;28;20020;-82
2022/06/17 01:43:38;;;;;;;;;;;;;;;25.06;52.39;98410.91;5028176;28;19929;-82
2022/06/17 01:46:06;;;;;;;;;;;;;;;25.28;51.70;98409.59;5035950;28;20424;-84
2022/06/17 01:48:34;;;;;;;;;;;;;;;25.35;51.20;98396.91;5032533;28;20134;-83
2022/06/17 01:51:02;;;;;;;;;;;;;;;25.45;51.18;98401.06;5032616;28;19929;-82
2022/06/17 01:53:30;;;;;;;;;;;;;;;25.36;50.95;98408.63;5028129;28;19925;-81
2022/06/17 01:55:59;;;;;;;;;;;;;;;24.66;51.38;98403.41;5030600;28;20170;-81
2022/06/17 01:58:29;;;;;;;;;;;;;;;24.62;52.69;98407.19;5028349;28;20027;-83
2022/06/17 02:00:56;;;;;;;;;;;;;;;24.04;53.01;98409.19;5026509;28;20032;-82
2022/06/17 02:03:24;;;;;;;;;;;;;;;23.25;54.34;98422.25;5027949;28;19929;-81
2022/06/17 02:05:52;;;;;;;;;;;;;;;22.97;55.97;98419.28;5036937;28;19928;-82
2022/06/17 02:08:18;;;;;;;;;;;;;;;23.03;55.26;98423.41;5031428;28;20515;-82
2022/06/17 02:10:47;;;;;;;;;;;;;;;24.12;54.57;98402.84;5036050;28;20320;-82
2022/06/17 02:13:14;;;;;;;;;;;;;;;24.33;53.63;98408.19;5038881;28;19953;-81
2022/06/17 02:15:42;;;;;;;;;;;;;;;24.06;52.85;98417.00;5036802;28;19929;-81
2022/06/17 02:18:12;;;;;;;;;;;;;;;24.29;53.25;98420.16;5013132;28;19953;-81
2022/06/17 02:20:39;;;;;;;;;;;;;;;24.47;52.81;98416.06;5035690;28;20582;-81
2022/06/17 02:23:06;;;;;;;;;;;;;;;24.65;52.37;98412.75;5037517;28;20673;-82
2022/06/17 02:25:35;;;;;;;;;;;;;;;24.91;51.67;98403.41;5031759;28;19929;-83
2022/06/17 02:28:02;;;;;;;;;;;;;;;25.05;51.21;98409.31;5037224;28;20027;-83
2022/06/17 02:30:29;;;;;;;;;;;;;;;25.14;51.09;98405.28;5036214;28;20015;-81
2022/06/17 02:32:59;;;;;;;;;;;;;;;25.18;50.88;98408.94;5035362;28;20016;-80
2022/06/17 02:35:30;;;;;;;;;;;;;;;25.18;50.72;98413.59;5018152;28;20109;-81
2022/06/17 02:37:56;;;;;;;;;;;;;;;25.20;50.52;98419.50;5037032;28;19983;-81
2022/06/17 02:40:25;;;;;;;;;;;;;;;25.17;50.53;98412.00;5029565;28;20011;-83
2022/06/17 02:42:51;;;;;;;;;;;;;;;25.16;50.34;98413.94;5030194;28;19931;-82
2022/06/17 02:45:19;;;;;;;;;;;;;;;25.19;50.50;98407.00;5036644;28;20032;-81
2022/06/17 02:47:45;;;;;;;;;;;;;;;25.15;50.63;98406.09;5032149;28;19974;-83
2022/06/17 02:50:17;;;;;;;;;;;;;;;25.12;50.43;98401.31;5013640;28;19925;-82
2022/06/17 02:52:43;;;;;;;;;;;;;;;25.14;50.52;98413.50;5028218;28;20221;-81
2022/06/17 02:55:13;;;;;;;;;;;;;;;25.06;50.55;98422.63;5025412;28;20008;-81
2022/06/17 02:57:40;;;;;;;;;;;;;;;25.06;50.38;98421.84;5036969;28;20007;-82
2022/06/17 03:00:11;;;;;;;;;;;;;;;25.02;50.48;98413.53;5031370;28;20108;-82
2022/06/17 03:02:39;;;;;;;;;;;;;;;25.05;50.37;98420.22;5027658;28;20202;-82
2022/06/17 03:05:11;;;;;;;;;;;;;;;24.95;50.43;98416.03;5033343;28;19925;-81
2022/06/17 03:07:39;;;;;;;;;;;;;;;25.03;50.38;98426.06;5025783;28;19976;-83
2022/06/17 03:10:06;;;;;;;;;;;;;;;24.99;50.50;98421.63;5023689;28;20033;-82
2022/06/17 03:12:33;;;;;;;;;;;;;;;24.97;50.38;98430.16;5024331;28;19933;-84
2022/06/17 03:15:02;;;;;;;;;;;;;;;24.95;50.62;98431.63;5032237;28;19959;-82
2022/06/17 03:17:30;;;;;;;;;;;;;;;24.87;50.42;98429.84;5033112;28;19924;-82
2022/06/17 03:19:57;;;;;;;;;;;;;;;24.69;50.88;98429.25;5028482;28;19928;-82
2022/06/17 03:22:24;;;;;;;;;;;;;;;23.98;51.82;98434.28;5033493;28;19929;-81
2022/06/17 03:24:56;;;;;;;;;;;;;;;24.06;52.36;98430.66;5029256;28;20079;-83
2022/06/17 03:27:25;;;;;;;;;;;;;;;23.92;52.19;98441.09;5033979;28;19928;-81
2022/06/17 03:29:52;;;;;;;;;;;;;;;23.93;52.79;98442.66;5024880;28;19987;-82
2022/06/17 03:32:20;;;;;;;;;;;;;;;24.02;52.28;98435.19;5023544;28;20683;-82
2022/06/17 03:34:48;;;;;;;;;;;;;;;24.13;52.26;98445.38;5034557;28;19928;-82
2022/06/17 03:37:17;;;;;;;;;;;;;;;24.26;51.74;98453.59;5033228;28;20515;-81
2022/06/17 03:39:46;;;;;;;;;;;;;;;24.14;51.78;98465.25;5017377;28;20125;-82
2022/06/17 03:42:17;;;;;;;;;;;;;;;24.31;51.75;98467.00;5029165;28;20023;-83
2022/06/17 03:44:45;;;;;;;;;;;;;;;24.39;51.56;98466.09;5008363;28;20428;-83
2022/06/17 03:47:16;;;;;;;;;;;;;;;24.47;51.20;98466.00;5036363;28;19986;-82
2022/06/17 03:49:44;;;;;;;;;;;;;;;24.53;51.24;98464.66;5025840;28;20213;-83
2022/06/17 03:52:14;;;;;;;;;;;;;;;24.61;50.98;98471.13;5031450;28;19955;-82
2022/06/17 03:54:41;;;;;;;;;;;;;;;24.60;50.91;98472.28;5026393;28;19982;-82
2022/06/17 03:57:09;;;;;;;;;;;;;;;24.59;50.67;98468.75;5032384;28;20024;-83
2022/06/17 03:59:37;;;;;;;;;;;;;;;24.56;50.77;98468.63;5027089;28;20011;-82
2022/06/17 04:02:06;;;;;;;;;;;;;;;24.57;50.83;98457.34;5033871;28;19932;-83
2022/06/17 04:04:34;;;;;;;;;;;;;;;24.53;51.14;98470.09;5030099;28;19925;-82
2022/06/17 04:07:01;;;;;;;;;;;;;;;24.50;51.19;98470.78;5036362;28;20004;-83
2022/06/17 04:09:29;;;;;;;;;;;;;;;24.50;51.07;98484.44;5032649;28;20388;-81
2022/06/17 04:11:57;;;;;;;;;;;;;;;24.55;50.94;98477.94;5031665;28;19925;-82
2022/06/17 04:14:25;;;;;;;;;;;;;;;24.53;50.97;98486.50;5029457;28;19929;-82
2022/06/17 04:16:57;;;;;;;;;;;;;;;24.55;50.77;98488.88;5024024;28;20023;-83
2022/06/17 04:19:26;;;;;;;;;;;;;;;24.42;51.36;98492.72;5031051;28;20356;-80
2022/06/17 04:21:53;;;;;;;;;;;;;;;23.61;52.50;98499.59;5034222;28;20028;-83
2022/06/17 04:24:22;;;;;;;;;;;;;;;23.51;52.93;98502.75;5023310;28;19925;-82
2022/06/17 04:26:50;;;;;;;;;;;;;;;23.32;53.89;98507.81;5038125;28;20449;-82
2022/06/17 04:29:19;;;;;;;;;;;;;;;23.57;53.59;98514.25;5017794;28;20032;-83
2022/06/17 04:31:48;;;;;;;;;;;;;;;23.47;53.70;98510.00;5038164;28;20002;-82
2022/06/17 04:34:17;;;;;;;;;;;;;;;23.20;53.81;98507.75;5031591;28;19925;-81
2022/06/17 04:36:45;;;;;;;;;;;;;;;23.59;53.88;98511.97;5038485;28;19978;-82
2022/06/17 04:39:18;;;;;;;;;;;;;;;23.54;53.31;98513.00;5035244;28;19929;-82
2022/06/17 04:41:44;;;;;;;;;;;;;;;23.82;53.37;98515.16;5038551;28;19979;-80
2022/06/17 04:44:13;;;;;;;;;;;;;;;24.03;52.87;98513.19;5007891;28;20144;-82
2022/06/17 04:46:41;;;;;;;;;;;;;;;24.11;52.47;98515.06;5014942;28;19978;-83
2022/06/17 04:49:14;;;;;;;;;;;;;;;23.86;53.14;98522.31;5020818;28;20324;-82
2022/06/17 04:51:41;;;;;;;;;;;;;;;24.11;52.69;98521.31;5027049;28;19929;-82
2022/06/17 04:54:08;;;;;;;;;;;;;;;24.23;52.33;98517.84;5031070;28;20021;-81
2022/06/17 04:56:38;;;;;;;;;;;;;;;24.28;52.09;98522.28;5021470;28;19929;-83
2022/06/17 04:59:16;;;;;;;;;;;;;;;24.16;52.53;98523.06;5031476;28;20483;-82
2022/06/17 05:01:43;;;;;;;;;;;;;;;23.72;53.25;98523.75;5009990;28;20391;-83
2022/06/17 05:04:10;;;;;;;;;;;;;;;23.79;53.75;98526.75;5037239;28;19925;-80
2022/06/17 05:06:36;;;;;;;;;;;;;;;23.99;53.14;98525.91;5015218;28;20023;-81
2022/06/17 05:09:08;;;;;;;;;;;;;;;24.18;52.83;98518.84;5015740;28;19925;-83
2022/06/17 05:11:37;;;;;;;;;;;;;;;24.26;52.52;98519.09;5015283;28;20147;-83
2022/06/17 05:14:07;;;;;;;;;;;;;;;23.98;53.26;98521.59;5018985;28;20003;-83
2022/06/17 05:16:34;;;;;;;;;;;;;;;23.88;53.73;98520.06;5027492;28;20720;-82
2022/06/17 05:19:00;;;;;;;;;;;;;;;23.52;54.66;98526.13;5016673;28;19929;-82
2022/06/17 05:21:27;;;;;;;;;;;;;;;23.82;54.11;98531.53;5025377;28;19925;-83
2022/06/17 05:23:56;;;;;;;;;;;;;;;24.00;53.83;98533.75;5035403;28;19975;-82
2022/06/17 05:26:24;;;;;;;;;;;;;;;24.09;53.59;98530.94;5031704;28;19988;-81
2022/06/17 05:28:51;;;;;;;;;;;;;;;24.12;53.59;98531.09;5027184;28;19989;-81
2022/06/17 05:31:19;;;;;;;;;;;;;;;24.37;53.41;98536.63;5019150;28;19941;-82
2022/06/17 05:33:46;;;;;;;;;;;;;;;24.43;53.26;98527.88;5032033;28;20004;-81
2022/06/17 05:36:13;;;;;;;;;;;;;;;24.31;53.30;98535.25;5035509;28;19925;-82
2022/06/17 05:38:39;;;;;;;;;;;;;;;24.62;52.95;98535.53;5010261;28;19929;-82
2022/06/17 05:41:06;;;;;;;;;;;;;;;24.69;52.55;98533.06;5028827;28;19944;-81
2022/06/17 05:43:34;;;;;;;;;;;;;;;24.87;52.39;98536.38;5026805;28;19977;-82
2022/06/17 05:46:01;;;;;;;;;;;;;;;24.89;52.59;98539.56;5038304;28;20180;-82
2022/06/17 05:48:27;;;;;;;;;;;;;;;24.83;52.59;98539.00;5038525;28;19925;-82
2022/06/17 05:50:53;;;;;;;;;;;;;;;24.98;52.46;98538.31;5026712;28;19940;-84
2022/06/17 05:53:20;;;;;;;;;;;;;;;25.07;52.31;98530.78;5030224;28;20741;-83
2022/06/17 05:55:46;;;;;;;;;;;;;;;25.27;52.06;98545.47;5018227;28;20292;-87
2022/06/17 05:58:12;;;;;;;;;;;;;;;25.29;51.86;98547.84;5027004;28;20080;-82
2022/06/17 06:00:40;;;;;;;;;;;;;;;25.23;52.07;98552.75;5027402;28;19998;-83
2022/06/17 06:03:07;;;;;;;;;;;;;;;25.24;52.11;98551.63;5035795;28;19979;-82
2022/06/17 06:05:34;;;;;;;;;;;;;;;25.47;51.98;98557.44;5031556;28;20300;-83
2022/06/17 06:08:01;;;;;;;;;;;;;;;25.58;51.67;98562.09;5037497;28;19939;-82
2022/06/17 06:10:27;;;;;;;;;;;;;;;25.59;51.91;98560.94;5033008;28;19937;-83
2022/06/17 06:13:03;;;;;;;;;;;;;;;25.82;51.54;98557.69;5029091;28;20020;-82
2022/06/17 06:15:31;;;;;;;;;;;;;;;26.01;51.40;98563.31;5034274;28;19925;-82
2022/06/17 06:17:58;;;;;;;;;;;;;;;26.18;51.11;98568.53;5013418;28;20348;-82
2022/06/17 06:20:25;;;;;;;;;;;;;;;25.74;51.44;98571.19;5028619;28;19925;-80
2022/06/17 06:22:51;;;;;;;;;;;;;;;25.61;52.27;98577.03;5038385;28;20016;-82
2022/06/17 06:25:18;;;;;;;;;;;;;;;25.56;52.13;98578.03;5034331;28;20638;-81
2022/06/17 06:27:45;;;;;;;;;;;;;;;25.53;51.96;98584.19;5037559;28;20518;-80
2022/06/17 06:30:16;;;;;;;;;;;;;;;25.17;53.18;98581.47;5033088;28;19987;-83
2022/06/17 06:32:46;;;;;;;;;;;;;;;25.48;52.55;98581.69;5035359;28;20019;-82
2022/06/17 06:35:15;;;;;;;;;;;;;;;25.55;52.49;98579.19;5038342;28;19931;-82
2022/06/17 06:37:42;;;;;;;;;;;;;;;25.73;52.34;98585.19;5036165;28;20012;-81
2022/06/17 06:40:09;;;;;;;;;;;;;;;26.07;51.96;98598.31;5029814;28;19928;-80
2022/06/17 06:42:35;;;;;;;;;;;;;;;26.29;51.33;98599.75;5029208;28;19976;-82
2022/06/17 06:45:01;;;;;;;;;;;;;;;26.38;51.24;98602.31;5033643;28;19924;-84
2022/06/17 06:47:28;;;;;;;;;;;;;;;25.92;49.74;98590.84;5029698;28;20471;-81
2022/06/17 06:49:55;;;;;;;;;;;;;;;25.70;50.84;98594.91;5032269;28;20020;-81
2022/06/17 06:52:22;;;;;;;;;;;;;;;25.71;51.15;98598.44;5036242;28;20603;-82
2022/06/17 06:54:50;;;;;;;;;;;;;;;25.36;50.69;98600.84;5035222;28;20526;-83
2022/06/17 06:57:16;;;;;;;;;;;;;;;25.11;51.02;98599.25;5015231;28;19924;-82
2022/06/17 06:59:42;;;;;;;;;;;;;;;25.05;51.23;98597.88;5027848;28;20046;-82
2022/06/17 07:02:09;;;;;;;;;;;;;;;25.38;51.34;98598.53;5035934;28;19992;-82
2022/06/17 07:04:35;;;;;;;;;;;;;;;25.85;51.42;98590.63;5037353;28;20047;-83
2022/06/17 07:07:02;;;;;;;;;;;;;;;26.33;50.30;98602.59;5037371;28;20024;-82
2022/06/17 07:09:29;;;;;;;;;;;;;;;26.59;49.97;98608.38;5037310;28;20019;-82
2022/06/17 07:11:56;;;;;;;;;;;;;;;26.28;49.97;98611.84;5038110;28;20403;-82
2022/06/17 07:14:22;;;;;;;;;;;;;;;26.65;49.71;98610.50;5028685;28;20459;-82
2022/06/17 07:16:48;;;;;;;;;;;;;;;26.63;49.52;98610.06;5015665;28;20018;-84
2022/06/17 07:19:16;;;;;;;;;;;;;;;26.63;49.25;98610.06;5020224;28;20125;-81
2022/06/17 07:21:42;;;;;;;;;;;;;;;26.42;49.91;98609.50;5029669;28;19932;-82
2022/06/17 07:24:09;;;;;;;;;;;;;;;26.36;49.80;98612.84;5029673;28;20020;-82
2022/06/17 07:26:36;;;;;;;;;;;;;;;26.05;50.00;98619.78;5033015;28;19929;-82
2022/06/17 07:29:03;;;;;;;;;;;;;;;25.83;49.91;98611.28;5028953;28;19984;-80
2022/06/17 07:31:29;;;;;;;;;;;;;;;25.51;50.99;98615.78;5033687;28;19924;-82
2022/06/17 07:33:57;;;;;;;;;;;;;;;25.63;51.29;98622.03;5013539;28;19933;-81
2022/06/17 07:41:56;;;;;;;;;;;;;;;24.99;52.21;98619.16;5027309;28;19995;-80
2022/06/17 07:44:22;;;;;;;;;;;;;;;25.71;51.04;98620.31;5035334;28;19964;-82
2022/06/17 07:46:49;;;;;;;;;;;;;;;25.58;51.19;98608.59;5023521;28;20627;-82
2022/06/17 07:49:15;;;;;;;;;;;;;;;25.37;51.73;98618.84;5028354;28;19978;-81
2022/06/17 07:51:42;;;;;;;;;;;;;;;25.34;51.91;98619.53;5028648;28;20031;-82
2022/06/17 07:54:08;;;;;;;;;;;;;;;25.18;51.76;98610.41;5016245;28;20048;-82
2022/06/17 07:56:34;;;;;;;;;;;;;;;25.00;52.49;98619.97;5027852;28;19929;-83
2022/06/17 07:59:02;;;;;;;;;;;;;;;24.92;52.62;98616.19;5014516;28;19996;-82
2022/06/17 08:01:29;;;;;;;;;;;;;;;24.78;52.71;98620.38;5030527;28;19964;-82
2022/06/17 08:03:56;;;;;;;;;;;;;;;25.38;52.10;98614.97;5028068;28;19979;-82
2022/06/17 08:06:22;;;;;;;;;;;;;;;25.25;51.32;98621.59;5025010;28;19933;-81
2022/06/17 08:08:49;;;;;;;;;;;;;;;25.08;52.09;98621.78;5034783;28;19933;-83
2022/06/17 08:11:16;;;;;;;;;;;;;;;24.85;52.37;98623.38;5035210;28;19925;-82
2022/06/17 08:13:42;;;;;;;;;;;;;;;24.55;52.43;98631.69;5011506;28;20015;-82
2022/06/17 08:16:12;;;;;;;;;;;;;;;24.83;52.43;98636.56;5033843;28;19984;-81
2022/06/17 08:18:39;;;;;;;;;;;;;;;25.22;51.72;98633.22;5029088;28;20464;-82
2022/06/17 08:21:05;;;;;;;;;;;;;;;25.09;51.77;98618.72;5024660;28;20391;-85
2022/06/17 08:23:32;;;;;;;;;;;;;;;25.08;51.82;98632.72;5030895;28;20024;-82
2022/06/17 08:25:58;;;;;;;;;;;;;;;25.22;51.93;98625.78;5025354;28;20422;-83
2022/06/17 08:28:25;;;;;;;;;;;;;;;25.34;52.43;98626.94;5032716;28;19939;-82
2022/06/17 08:30:53;;;;;;;;;;;;;;;25.11;52.59;98634.78;5022552;28;20532;-84
2022/06/17 08:33:27;;;;;;;;;;;;;;;25.09;51.62;98634.34;5029455;28;19940;-84
2022/06/17 08:35:55;;;;;;;;;;;;;;;24.89;52.27;98630.53;5030679;28;19932;-83
2022/06/17 08:38:22;;;;;;;;;;;;;;;24.86;52.47;98647.59;5027547;28;19972;-83
2022/06/17 08:40:55;;;;;;;;;;;;;;;25.10;52.11;98636.72;5033084;28;20036;-82
2022/06/17 08:43:32;;;;;;;;;;;;;;;25.28;51.85;98640.03;5035216;28;20007;-84
2022/06/17 08:46:04;;;;;;;;;;;;;;;25.21;50.94;98648.00;5018375;28;19935;-84
2022/06/17 08:48:36;;;;;;;;;;;;;;;25.62;50.16;98636.88;5023760;28;19925;-83
2022/06/17 08:51:09;;;;;;;;;;;;;;;25.29;48.07;98643.56;5034705;28;20557;-85
2022/06/17 08:53:51;;;;;;;;;;;;;;;25.28;48.59;98656.44;5034223;28;20368;-85
2022/06/17 08:56:22;;;;;;;;;;;;;;;25.10;47.33;98655.84;5025694;28;19960;-84
2022/06/17 08:58:53;;;;;;;;;;;;;;;24.92;48.81;98643.53;5024503;28;20045;-86
2022/06/17 09:01:24;;;;;;;;;;;;;;;25.11;49.54;98645.72;5025760;28;19979;-87
2022/06/17 09:03:58;;;;;;;;;;;;;;;25.14;48.99;98651.31;5019573;28;20446;-88
2022/06/17 09:06:31;;;;;;;;;;;;;;;24.92;49.80;98648.19;5021150;28;19963;-88
2022/06/17 09:09:06;;;;;;;;;;;;;;;25.10;49.60;98652.31;5042369;28;20014;-87
2022/06/17 09:11:36;;;;;;;;;;;;;;;25.09;50.19;98648.81;5027703;28;19979;-83
2022/06/17 09:14:10;;;;;;;;;;;;;;;25.17;50.18;98647.09;5033718;28;19929;-85
2022/06/17 09:16:41;;;;;;;;;;;;;;;25.36;50.13;98650.06;5018083;28;20090;-83
2022/06/17 09:19:10;;;;;;;;;;;;;;;25.37;47.96;98638.00;5030652;28;20084;-82
2022/06/17 09:21:40;;;;;;;;;;;;;;;25.03;47.20;98631.03;5034727;28;20087;-83
2022/06/17 09:24:08;;;;;;;;;;;;;;;25.14;47.50;98631.38;5034613;28;19925;-82
2022/06/17 09:26:39;;;;;;;;;;;;;;;25.70;47.27;98622.25;5021688;28;19968;-82
2022/06/17 09:29:08;;;;;;;;;;;;;;;26.02;47.51;98634.16;5037558;28;19925;-83
2022/06/17 09:31:38;;;;;;;;;;;;;;;26.01;47.20;98631.75;5018687;28;19951;-82
2022/06/17 09:34:07;;;;;;;;;;;;;;;25.77;46.28;98636.16;5028402;28;19929;-82
2022/06/17 09:36:37;;;;;;;;;;;;;;;25.51;45.24;98635.72;5034023;28;19932;-82
2022/06/17 09:39:08;;;;;;;;;;;;;;;25.68;46.55;98643.69;5031572;28;20061;-83
2022/06/17 09:41:36;;;;;;;;;;;;;;;25.89;46.19;98632.59;5008965;28;20537;-83
2022/06/17 09:44:05;;;;;;;;;;;;;;;25.98;45.71;98632.44;5036562;28;19929;-82
2022/06/17 09:46:34;;;;;;;;;;;;;;;25.81;45.80;98636.25;5025346;28;20135;-83
2022/06/17 09:49:03;;;;;;;;;;;;;;;25.98;45.61;98625.03;5028304;28;19936;-82
2022/06/17 09:51:32;;;;;;;;;;;;;;;25.96;45.70;98629.28;5036703;28;19929;-83
2022/06/17 09:54:02;;;;;;;;;;;;;;;25.72;45.04;98627.38;5030564;28;19964;-82
2022/06/17 09:56:31;;;;;;;;;;;;;;;26.05;45.24;98628.00;5025360;28;19932;-82
2022/06/17 09:59:01;;;;;;;;;;;;;;;26.23;45.05;98626.59;5034318;28;20561;-83
2022/06/17 10:01:28;;;;;;;;;;;;;;;26.09;45.65;98626.13;5037407;28;19933;-86
2022/06/17 10:03:54;;;;;;;;;;;;;;;26.19;45.99;98633.91;5036326;28;19935;-84
2022/06/17 10:06:28;;;;;;;;;;;;;;;26.33;46.27;98622.56;5031019;28;20484;-83
2022/06/17 10:09:00;;;;;;;;;;;;;;;26.56;45.50;98631.78;5032856;28;19998;-83
2022/06/17 10:11:33;;;;;;;;;;;;;;;26.68;45.71;98623.50;5010053;28;19987;-82
2022/06/17 10:14:06;;;;;;;;;;;;;;;26.69;45.50;98619.63;5027802;28;20082;-84
2022/06/17 10:19:27;;;;;;;;;;;;;;;26.06;45.39;98618.63;5030430;28;20531;-84
2022/06/17 10:22:03;;;;;;;;;;;;;;;26.05;46.13;98624.47;5028731;28;20206;-83
2022/06/17 10:24:35;;;;;;;;;;;;;;;26.33;45.11;98622.56;5031581;28;20040;-81
2022/06/17 10:27:08;;;;;;;;;;;;;;;26.67;45.28;98613.72;5006580;28;20193;-82
2022/06/17 10:29:48;;;;;;;;;;;;;;;26.87;44.95;98617.38;5030978;28;19980;-82
2022/06/17 10:32:15;;;;;;;;;;;;;;;26.65;44.97;98607.75;5034645;28;19968;-84
2022/06/17 10:34:44;;;;;;;;;;;;;;;26.61;45.39;98608.84;5028242;28;20043;-82
2022/06/17 10:37:11;;;;;;;;;;;;;;;26.67;45.55;98610.16;5030230;28;20035;-82
2022/06/17 10:39:39;;;;;;;;;;;;;;;26.62;44.71;98611.22;5031412;28;20522;-83
2022/06/17 10:42:08;;;;;;;;;;;;;;;26.52;45.52;98603.50;5020140;28;20454;-83
2022/06/17 10:44:35;;;;;;;;;;;;;;;26.78;44.88;98601.06;5035882;28;19935;-83
2022/06/17 10:47:16;;;;;;;;;;;;;;;26.65;44.94;98601.47;5011201;28;19960;-82
2022/06/17 10:49:45;;;;;;;;;;;;;;;26.62;44.98;98600.25;5028373;28;20465;-83
2022/06/17 10:52:19;;;;;;;;;;;;;;;26.33;45.38;98591.63;5011658;28;20402;-83
2022/06/17 10:54:47;;;;;;;;;;;;;;;26.60;45.19;98594.34;5032593;28;19960;-84
2022/06/17 10:57:22;;;;;;;;;;;;;;;26.66;44.66;98592.94;5028122;28;20004;-83
2022/06/17 10:59:49;;;;;;;;;;;;;;;26.95;44.81;98599.16;5032960;28;20032;-84
2022/06/17 11:02:24;;;;;;;;;;;;;;;26.98;45.03;98596.53;5015985;28;20443;-82
2022/06/17 11:04:51;;;;;;;;;;;;;;;27.17;44.83;98598.56;5034456;28;19940;-84
2022/06/17 11:07:18;;;;;;;;;;;;;;;27.20;44.80;98595.88;5030261;28;19924;-82
2022/06/17 11:09:47;;;;;;;;;;;;;;;26.89;44.59;98601.38;5031992;28;19931;-83
2022/06/17 11:12:19;;;;;;;;;;;;;;;27.12;44.79;98604.28;5030102;28;20381;-83
2022/06/17 11:14:50;;;;;;;;;;;;;;;27.28;43.89;98599.59;5024822;28;20377;-82
2022/06/17 11:17:19;;;;;;;;;;;;;;;27.31;43.58;98601.63;5029642;28;19925;-82
2022/06/17 11:19:47;;;;;;;;;;;;;;;26.98;41.17;98602.00;5028241;28;19972;-83
2022/06/17 11:22:19;;;;;;;;;;;;;;;26.70;41.45;98607.53;5028394;28;19979;-82
2022/06/17 11:24:50;;;;;;;;;;;;;;;26.75;40.91;98607.25;5031210;28;20010;-81
2022/06/17 11:27:26;;;;;;;;;;;;;;;27.04;42.46;98605.28;5011330;28;19925;-83
2022/06/17 11:29:54;;;;;;;;;;;;;;;27.26;41.51;98610.94;5025063;28;19990;-84
2022/06/17 11:32:27;;;;;;;;;;;;;;;27.29;42.31;98604.72;5029516;28;19928;-83
2022/06/17 11:34:55;;;;;;;;;;;;;;;27.40;41.77;98613.19;5024576;28;19925;-82
2022/06/17 11:37:24;;;;;;;;;;;;;;;27.42;42.39;98607.38;5030156;28;20048;-84
2022/06/17 11:40:08;;;;;;;;;;;;;;;27.32;41.48;98593.03;5012452;28;20188;-83
2022/06/17 11:42:43;;;;;;;;;;;;;;;27.33;43.09;98594.63;5018856;28;19929;-83
2022/06/17 11:45:13;;;;;;;;;;;;;;;27.56;42.25;98588.50;5029715;28;19928;-83
2022/06/17 11:47:45;;;;;;;;;;;;;;;27.72;42.39;98584.56;5030592;28;20038;-83
2022/06/17 11:50:13;;;;;;;;;;;;;;;27.80;42.76;98580.81;5032649;28;20407;-84
2022/06/17 11:52:40;;;;;;;;;;;;;;;27.88;42.24;98584.50;5029128;28;20029;-83
2022/06/17 11:55:07;;;;;;;;;;;;;;;27.69;42.84;98579.00;5021890;28;19963;-83
2022/06/17 11:57:35;;;;;;;;;;;;;;;27.45;43.11;98582.00;5025756;28;19924;-84
2022/06/17 12:00:04;;;;;;;;;;;;;;;27.26;42.93;98588.19;5034438;28;19929;-84
2022/06/17 12:02:31;;;;;;;;;;;;;;;27.29;42.86;98577.31;5027597;28;19983;-85
2022/06/17 12:05:07;;;;;;;;;;;;;;;27.54;42.29;98572.41;5034644;28;19924;-82
2022/06/17 12:07:41;;;;;;;;;;;;;;;27.72;42.70;98573.59;5032398;28;20068;-84
2022/06/17 12:10:32;;;;;;;;;;;;;;;27.76;42.99;98573.66;5030897;28;19924;-83
2022/06/17 12:13:02;;;;;;;;;;;;;;;27.71;42.71;98561.00;5015672;28;19932;-84
2022/06/17 12:15:32;;;;;;;;;;;;;;;27.54;43.01;98569.66;5033117;28;19924;-82
2022/06/17 12:18:00;;;;;;;;;;;;;;;27.69;42.35;98570.75;5030726;28;19928;-82
2022/06/17 12:20:32;;;;;;;;;;;;;;;27.60;42.84;98554.50;5035661;28;20414;-85
2022/06/17 12:23:03;;;;;;;;;;;;;;;27.83;42.89;98558.13;5019612;28;19929;-82
2022/06/17 12:25:36;;;;;;;;;;;;;;;27.87;43.01;98559.00;5027725;28;20455;-84
2022/06/17 12:28:05;;;;;;;;;;;;;;;27.95;42.48;98570.91;5021489;28;20101;-83
2022/06/17 12:30:38;;;;;;;;;;;;;;;28.09;44.04;98556.72;5029877;28;20190;-85
2022/06/17 12:33:10;;;;;;;;;;;;;;;28.10;44.21;98561.84;5030210;28;19967;-83
2022/06/17 12:35:38;;;;;;;;;;;;;;;28.35;44.16;98554.06;5031474;28;20471;-83
2022/06/17 12:38:07;;;;;;;;;;;;;;;28.53;42.99;98548.91;5029194;28;20096;-82
2022/06/17 12:40:38;;;;;;;;;;;;;;;28.48;41.27;98550.00;5014507;28;19935;-83
2022/06/17 12:43:10;;;;;;;;;;;;;;;28.46;42.11;98562.53;5036937;28;20059;-82
2022/06/17 12:45:40;;;;;;;;;;;;;;;28.54;41.23;98554.03;5031621;28;19963;-84
2022/06/17 12:48:15;;;;;;;;;;;;;;;28.47;40.10;98558.63;5021858;28;19932;-83
2022/06/17 12:53:36;;;;;;;;;;;;;;;28.08;39.77;98555.91;5013847;28;20024;-82
2022/06/17 12:56:14;;;;;;;;;;;;;;;28.05;40.13;98556.66;5033560;28;20245;-83
2022/06/17 12:59:11;;;;;;;;;;;;;;;28.28;40.36;98556.69;5010456;28;20327;-84
2022/06/17 13:01:41;;;;;;;;;;;;;;;28.37;40.76;98557.28;5035568;28;19956;-82
2022/06/17 13:04:17;;;;;;;;;;;;;;;28.27;40.34;98555.09;5034022;28;20092;-84
2022/06/17 13:06:49;;;;;;;;;;;;;;;27.89;39.79;98544.91;5031939;28;19929;-83
2022/06/17 13:09:20;;;;;;;;;;;;;;;28.34;40.43;98549.75;5037523;28;19924;-86
2022/06/17 13:11:49;;;;;;;;;;;;;;;28.30;40.32;98552.44;5034097;28;19928;-83